sensor_id;sensor_type;location;lat;lon;timestamp;pressure;altitude;pressure_sealevel;temperature;humidity
70141;BME280;57508;43.086;0.136;2022-10-23T06:18:21;95083.31;;;29.52;24.26
70141;BME280;57508;43.086;0.136;2022-10-23T06:20:47;95094.94;;;29.52;23.44
70141;BME280;57508;43.086;0.136;2022-10-23T06:23:12;95094.97;;;29.19;25.15
70141;BME280;57508;43.086;0.136;2022-10-23T06:25:37;95107.13;;;29.31;24.50
70141;BME280;57508;43.086;0.136;2022-10-23T06:28:03;95094.72;;;28.76;25.76
70141;BME280;57508;43.086;0.136;2022-10-23T06:30:28;95109.22;;;29.07;25.35
70141;BME280;57508;43.086;0.136;2022-10-23T06:32:54;95124.03;;;28.85;25.89
70141;BME280;57508;43.086;0.136;2022-10-23T06:35:19;95130.16;;;28.89;24.86
70141;BME280;57508;43.086;0.136;2022-10-23T06:37:44;95095.28;;;29.04;25.21
70141;BME280;57508;43.086;0.136;2022-10-23T06:40:10;95106.69;;;28.62;24.60
70141;BME280;57508;43.086;0.136;2022-10-23T06:42:35;95116.66;;;28.86;24.40
70141;BME280;57508;43.086;0.136;2022-10-23T06:45:01;95116.78;;;29.82;22.71
70141;BME280;57508;43.086;0.136;2022-10-23T06:47:26;95110.66;;;29.95;23.27
70141;BME280;57508;43.086;0.136;2022-10-23T06:49:52;95101.59;;;30.27;20.88
70141;BME280;57508;43.086;0.136;2022-10-23T06:52:17;95107.72;;;31.00;20.30
70141;BME280;57508;43.086;0.136;2022-10-23T06:54:43;95099.38;;;31.56;20.21
70141;BME280;57508;43.086;0.136;2022-10-23T06:57:08;95091.59;;;30.93;20.18
70141;BME280;57508;43.086;0.136;2022-10-23T06:59:33;95110.25;;;31.08;20.09
70141;BME280;57508;43.086;0.136;2022-10-23T07:01:59;95081.41;;;31.33;23.05
70141;BME280;57508;43.086;0.136;2022-10-23T07:04:24;95087.50;;;31.50;21.90
70141;BME280;57508;43.086;0.136;2022-10-23T07:06:50;95085.13;;;31.39;22.03
70141;BME280;57508;43.086;0.136;2022-10-23T07:09:15;95094.97;;;30.97;23.30
70141;BME280;57508;43.086;0.136;2022-10-23T07:11:40;95111.03;;;31.69;22.07
70141;BME280;57508;43.086;0.136;2022-10-23T07:14:06;95132.94;;;30.78;22.81
70141;BME280;57508;43.086;0.136;2022-10-23T07:16:31;95149.19;;;31.47;23.46
70141;BME280;57508;43.086;0.136;2022-10-23T07:18:58;95152.34;;;31.59;24.01
70141;BME280;57508;43.086;0.136;2022-10-23T07:21:26;95180.00;;;30.07;25.06
70141;BME280;57508;43.086;0.136;2022-10-23T07:23:52;95186.41;;;31.15;23.36
70141;BME280;57508;43.086;0.136;2022-10-23T07:26:18;95202.81;;;31.67;23.94
70141;BME280;57508;43.086;0.136;2022-10-23T07:28:46;95188.34;;;30.46;26.60
70141;BME280;57508;43.086;0.136;2022-10-23T07:31:11;95164.91;;;30.48;26.16
70141;BME280;57508;43.086;0.136;2022-10-23T07:33:37;95188.91;;;30.24;25.18
70141;BME280;57508;43.086;0.136;2022-10-23T07:36:06;95194.31;;;31.39;23.91
70141;BME280;57508;43.086;0.136;2022-10-23T07:38:33;95181.38;;;31.78;24.36
70141;BME280;57508;43.086;0.136;2022-10-23T07:40:59;95202.47;;;31.52;25.87
70141;BME280;57508;43.086;0.136;2022-10-23T07:43:25;95211.66;;;30.76;26.12
70141;BME280;57508;43.086;0.136;2022-10-23T07:45:53;95212.44;;;30.47;26.23
70141;BME280;57508;43.086;0.136;2022-10-23T07:48:18;95225.00;;;30.28;26.72
70141;BME280;57508;43.086;0.136;2022-10-23T07:50:45;95194.63;;;30.42;27.13
70141;BME280;57508;43.086;0.136;2022-10-23T07:53:22;95214.13;;;31.00;27.26
70141;BME280;57508;43.086;0.136;2022-10-23T07:55:56;95231.13;;;30.62;28.01
70141;BME280;57508;43.086;0.136;2022-10-23T07:58:23;95234.72;;;30.88;28.38
70141;BME280;57508;43.086;0.136;2022-10-23T08:00:59;95247.63;;;30.71;27.39
70141;BME280;57508;43.086;0.136;2022-10-23T08:03:27;95240.63;;;30.70;28.67
70141;BME280;57508;43.086;0.136;2022-10-23T08:05:54;95269.38;;;30.28;28.10
70141;BME280;57508;43.086;0.136;2022-10-23T08:08:21;95276.69;;;29.98;29.61
70141;BME280;57508;43.086;0.136;2022-10-23T08:10:48;95235.72;;;30.18;29.12
70141;BME280;57508;43.086;0.136;2022-10-23T08:13:14;95244.28;;;30.50;29.45
70141;BME280;57508;43.086;0.136;2022-10-23T08:15:40;95262.88;;;30.05;29.54
70141;BME280;57508;43.086;0.136;2022-10-23T08:18:06;95264.84;;;30.05;29.42
70141;BME280;57508;43.086;0.136;2022-10-23T08:20:31;95249.63;;;30.24;28.63
70141;BME280;57508;43.086;0.136;2022-10-23T08:22:58;95256.53;;;30.59;28.53
70141;BME280;57508;43.086;0.136;2022-10-23T08:25:24;95266.53;;;30.49;29.51
70141;BME280;57508;43.086;0.136;2022-10-23T08:27:49;95262.97;;;30.35;29.43
70141;BME280;57508;43.086;0.136;2022-10-23T08:30:15;95271.59;;;29.47;29.72
70141;BME280;57508;43.086;0.136;2022-10-23T08:32:40;95282.47;;;29.84;29.51
70141;BME280;57508;43.086;0.136;2022-10-23T08:35:06;95287.72;;;30.41;29.44
70141;BME280;57508;43.086;0.136;2022-10-23T08:37:31;95271.66;;;30.76;28.79
70141;BME280;57508;43.086;0.136;2022-10-23T08:39:57;95281.72;;;30.79;29.30
70141;BME280;57508;43.086;0.136;2022-10-23T08:42:24;95277.03;;;29.47;30.06
70141;BME280;57508;43.086;0.136;2022-10-23T08:47:27;95304.19;;;29.50;30.77
70141;BME280;57508;43.086;0.136;2022-10-23T08:49:56;95321.75;;;29.46;30.73
70141;BME280;57508;43.086;0.136;2022-10-23T08:55:23;95288.06;;;29.76;29.69
70141;BME280;57508;43.086;0.136;2022-10-23T08:58:04;95281.88;;;29.39;29.76
70141;BME280;57508;43.086;0.136;2022-10-23T09:00:30;95295.34;;;28.41;31.95
70141;BME280;57508;43.086;0.136;2022-10-23T09:03:00;95317.19;;;28.58;32.28
70141;BME280;57508;43.086;0.136;2022-10-23T09:05:31;95297.97;;;28.21;32.89
70141;BME280;57508;43.086;0.136;2022-10-23T09:16:42;95295.91;;;28.52;32.74
70141;BME280;57508;43.086;0.136;2022-10-23T09:18:42;95295.66;;;28.67;32.45
70141;BME280;57508;43.086;0.136;2022-10-23T09:21:08;95316.81;;;29.40;30.81
70141;BME280;57508;43.086;0.136;2022-10-23T09:23:34;95311.16;;;30.22;30.56
70141;BME280;57508;43.086;0.136;2022-10-23T09:26:00;95308.97;;;30.63;29.35
70141;BME280;57508;43.086;0.136;2022-10-23T09:28:30;95333.53;;;30.63;29.04
70141;BME280;57508;43.086;0.136;2022-10-23T09:31:06;95275.16;;;31.19;30.77
70141;BME280;57508;43.086;0.136;2022-10-23T09:33:32;95305.00;;;31.40;28.19
70141;BME280;57508;43.086;0.136;2022-10-23T09:40:57;95330.19;;;32.13;28.33
70141;BME280;57508;43.086;0.136;2022-10-23T09:43:23;95324.25;;;32.27;28.78
70141;BME280;57508;43.086;0.136;2022-10-23T09:46:00;95299.84;;;32.33;28.61
70141;BME280;57508;43.086;0.136;2022-10-23T09:48:27;95328.53;;;31.89;28.37
70141;BME280;57508;43.086;0.136;2022-10-23T09:50:58;95319.00;;;31.81;27.96
70141;BME280;57508;43.086;0.136;2022-10-23T09:53:37;95307.88;;;32.14;27.86
70141;BME280;57508;43.086;0.136;2022-10-23T09:56:23;95310.88;;;32.55;27.53
70141;BME280;57508;43.086;0.136;2022-10-23T09:59:00;95328.44;;;32.90;26.82
70141;BME280;57508;43.086;0.136;2022-10-23T10:01:33;95318.09;;;33.29;26.19
70141;BME280;57508;43.086;0.136;2022-10-23T10:04:02;95293.22;;;32.92;27.02
70141;BME280;57508;43.086;0.136;2022-10-23T10:06:30;95293.19;;;33.37;25.79
70141;BME280;57508;43.086;0.136;2022-10-23T10:09:02;95314.50;;;33.42;25.38
70141;BME280;57508;43.086;0.136;2022-10-23T10:11:32;95317.56;;;33.44;25.62
70141;BME280;57508;43.086;0.136;2022-10-23T10:17:18;95326.66;;;34.04;24.42
70141;BME280;57508;43.086;0.136;2022-10-23T10:23:09;95333.03;;;34.61;25.09
70141;BME280;57508;43.086;0.136;2022-10-23T10:26:03;95317.38;;;34.90;24.49
70141;BME280;57508;43.086;0.136;2022-10-23T10:34:27;95314.00;;;34.85;23.44
70141;BME280;57508;43.086;0.136;2022-10-23T10:39:43;95327.66;;;34.39;23.33
70141;BME280;57508;43.086;0.136;2022-10-23T10:45:20;95327.41;;;34.83;23.34
70141;BME280;57508;43.086;0.136;2022-10-23T10:50:20;95289.66;;;35.50;24.53
70141;BME280;57508;43.086;0.136;2022-10-23T10:52:59;95279.00;;;36.10;23.73
70141;BME280;57508;43.086;0.136;2022-10-23T10:55:42;95269.31;;;35.56;22.85
70141;BME280;57508;43.086;0.136;2022-10-23T11:00:49;95289.59;;;35.68;21.38
70141;BME280;57508;43.086;0.136;2022-10-23T11:05:56;95270.34;;;36.51;20.95
70141;BME280;57508;43.086;0.136;2022-10-23T11:08:38;95257.69;;;36.69;21.11
70141;BME280;57508;43.086;0.136;2022-10-23T11:11:16;95257.31;;;36.91;20.65
70141;BME280;57508;43.086;0.136;2022-10-23T11:13:43;95286.81;;;38.02;20.07
70141;BME280;57508;43.086;0.136;2022-10-23T11:16:28;95250.34;;;39.02;19.41
70141;BME280;57508;43.086;0.136;2022-10-23T11:24:14;95244.00;;;38.96;16.92
70141;BME280;57508;43.086;0.136;2022-10-23T11:26:56;95229.81;;;39.41;17.62
70141;BME280;57508;43.086;0.136;2022-10-23T11:38:22;95248.69;;;39.86;14.81
70141;BME280;57508;43.086;0.136;2022-10-23T11:40:51;95192.84;;;40.32;16.02
70141;BME280;57508;43.086;0.136;2022-10-23T11:45:56;95240.66;;;39.88;16.23
70141;BME280;57508;43.086;0.136;2022-10-23T11:48:36;95196.97;;;39.49;15.68
70141;BME280;57508;43.086;0.136;2022-10-23T11:51:03;95189.16;;;39.09;16.97
70141;BME280;57508;43.086;0.136;2022-10-23T11:56:31;95207.97;;;38.31;15.46
70141;BME280;57508;43.086;0.136;2022-10-23T11:58:52;95195.75;;;38.38;17.95
70141;BME280;57508;43.086;0.136;2022-10-23T12:03:53;95181.59;;;40.87;14.37
70141;BME280;57508;43.086;0.136;2022-10-23T12:06:36;95184.16;;;42.07;12.90
70141;BME280;57508;43.086;0.136;2022-10-23T12:09:07;95204.81;;;42.65;11.54
70141;BME280;57508;43.086;0.136;2022-10-23T12:11:41;95224.16;;;43.13;11.50
70141;BME280;57508;43.086;0.136;2022-10-23T12:14:28;95234.28;;;43.41;12.88
70141;BME280;57508;43.086;0.136;2022-10-23T12:16:54;95221.47;;;43.33;11.74
70141;BME280;57508;43.086;0.136;2022-10-23T12:19:22;95218.19;;;43.59;11.70
70141;BME280;57508;43.086;0.136;2022-10-23T12:21:53;95209.63;;;42.96;12.30
70141;BME280;57508;43.086;0.136;2022-10-23T12:30:17;95205.44;;;45.51;9.96
70141;BME280;57508;43.086;0.136;2022-10-23T12:38:17;95166.56;;;44.08;11.03
70141;BME280;57508;43.086;0.136;2022-10-23T12:40:44;95191.63;;;45.12;11.01
70141;BME280;57508;43.086;0.136;2022-10-23T12:43:37;95197.16;;;46.13;9.87
70141;BME280;57508;43.086;0.136;2022-10-23T12:48:51;95176.81;;;46.39;10.16
70141;BME280;57508;43.086;0.136;2022-10-23T12:51:25;95175.28;;;46.94;9.48
70141;BME280;57508;43.086;0.136;2022-10-23T12:53:51;95198.03;;;47.41;9.11
70141;BME280;57508;43.086;0.136;2022-10-23T12:56:17;95200.56;;;46.67;9.38
70141;BME280;57508;43.086;0.136;2022-10-23T12:58:54;95214.97;;;45.42;10.57
70141;BME280;57508;43.086;0.136;2022-10-23T13:01:34;95204.59;;;45.10;11.31
70141;BME280;57508;43.086;0.136;2022-10-23T13:04:25;95217.19;;;43.01;12.33
70141;BME280;57508;43.086;0.136;2022-10-23T13:06:54;95220.03;;;41.88;13.02
70141;BME280;57508;43.086;0.136;2022-10-23T13:11:55;95216.09;;;41.26;13.67
70141;BME280;57508;43.086;0.136;2022-10-23T13:14:41;95205.63;;;42.01;12.76
70141;BME280;57508;43.086;0.136;2022-10-23T13:17:09;95217.47;;;42.55;12.93
70141;BME280;57508;43.086;0.136;2022-10-23T13:19:36;95230.91;;;41.63;13.03
70141;BME280;57508;43.086;0.136;2022-10-23T13:22:03;95229.22;;;41.08;13.27
70141;BME280;57508;43.086;0.136;2022-10-23T13:24:29;95224.09;;;40.55;13.75
70141;BME280;57508;43.086;0.136;2022-10-23T13:26:56;95214.28;;;40.60;14.88
70141;BME280;57508;43.086;0.136;2022-10-23T13:29:30;95226.13;;;39.99;14.94
70141;BME280;57508;43.086;0.136;2022-10-23T13:32:11;95221.09;;;39.98;14.29
70141;BME280;57508;43.086;0.136;2022-10-23T13:34:36;95219.16;;;40.16;14.57
70141;BME280;57508;43.086;0.136;2022-10-23T13:39:45;95201.75;;;39.54;14.86
70141;BME280;57508;43.086;0.136;2022-10-23T13:42:13;95184.84;;;39.08;14.50
70141;BME280;57508;43.086;0.136;2022-10-23T13:44:40;95184.84;;;39.84;14.34
70141;BME280;57508;43.086;0.136;2022-10-23T13:47:10;95206.41;;;39.74;14.77
70141;BME280;57508;43.086;0.136;2022-10-23T13:49:36;95185.72;;;40.13;14.38
70141;BME280;57508;43.086;0.136;2022-10-23T13:52:02;95180.00;;;40.29;13.33
70141;BME280;57508;43.086;0.136;2022-10-23T13:54:28;95177.06;;;40.89;13.62
70141;BME280;57508;43.086;0.136;2022-10-23T13:56:54;95173.19;;;40.30;13.08
70141;BME280;57508;43.086;0.136;2022-10-23T13:59:21;95189.78;;;40.30;13.04
70141;BME280;57508;43.086;0.136;2022-10-23T14:01:48;95199.06;;;39.66;13.51
70141;BME280;57508;43.086;0.136;2022-10-23T14:04:15;95218.91;;;39.64;14.52
70141;BME280;57508;43.086;0.136;2022-10-23T14:06:41;95214.84;;;40.03;13.72
70141;BME280;57508;43.086;0.136;2022-10-23T14:09:10;95211.56;;;41.11;13.71
70141;BME280;57508;43.086;0.136;2022-10-23T14:11:37;95219.09;;;41.57;13.85
70141;BME280;57508;43.086;0.136;2022-10-23T14:14:02;95202.13;;;41.95;13.56
70141;BME280;57508;43.086;0.136;2022-10-23T14:16:28;95224.78;;;41.99;12.99
70141;BME280;57508;43.086;0.136;2022-10-23T14:18:54;95234.56;;;42.23;12.30
70141;BME280;57508;43.086;0.136;2022-10-23T14:21:20;95232.22;;;42.33;12.43
70141;BME280;57508;43.086;0.136;2022-10-23T14:23:47;95232.59;;;43.33;11.93
70141;BME280;57508;43.086;0.136;2022-10-23T14:26:15;95220.97;;;43.84;11.44
70141;BME280;57508;43.086;0.136;2022-10-23T14:28:41;95214.94;;;43.30;11.71
70141;BME280;57508;43.086;0.136;2022-10-23T14:31:09;95228.53;;;42.07;12.10
70141;BME280;57508;43.086;0.136;2022-10-23T14:33:35;95238.25;;;42.37;12.11
70141;BME280;57508;43.086;0.136;2022-10-23T14:36:01;95238.22;;;42.43;12.70
70141;BME280;57508;43.086;0.136;2022-10-23T14:38:27;95243.75;;;42.48;13.13
70141;BME280;57508;43.086;0.136;2022-10-23T14:40:53;95232.69;;;42.43;12.95
70141;BME280;57508;43.086;0.136;2022-10-23T14:43:18;95226.63;;;43.23;11.54
70141;BME280;57508;43.086;0.136;2022-10-23T14:45:44;95219.97;;;43.01;11.75
70141;BME280;57508;43.086;0.136;2022-10-23T14:48:09;95228.75;;;43.11;11.41
70141;BME280;57508;43.086;0.136;2022-10-23T14:50:36;95236.03;;;43.14;11.88
70141;BME280;57508;43.086;0.136;2022-10-23T14:53:06;95222.53;;;42.57;11.57
70141;BME280;57508;43.086;0.136;2022-10-23T14:55:31;95233.03;;;42.27;11.96
70141;BME280;57508;43.086;0.136;2022-10-23T14:57:57;95239.47;;;41.82;12.13
70141;BME280;57508;43.086;0.136;2022-10-23T15:00:22;95240.03;;;41.12;12.96
70141;BME280;57508;43.086;0.136;2022-10-23T15:02:48;95255.38;;;41.13;12.81
70141;BME280;57508;43.086;0.136;2022-10-23T15:05:14;95254.28;;;40.53;11.01
70141;BME280;57508;43.086;0.136;2022-10-23T15:07:40;95252.63;;;40.18;12.91
70141;BME280;57508;43.086;0.136;2022-10-23T15:10:06;95256.91;;;40.19;12.86
70141;BME280;57508;43.086;0.136;2022-10-23T15:12:33;95258.22;;;39.80;12.05
70141;BME280;57508;43.086;0.136;2022-10-23T15:14:59;95252.31;;;39.28;12.14
70141;BME280;57508;43.086;0.136;2022-10-23T15:17:25;95268.00;;;39.10;12.26
70141;BME280;57508;43.086;0.136;2022-10-23T15:19:50;95263.53;;;39.19;12.06
70141;BME280;57508;43.086;0.136;2022-10-23T15:22:16;95268.13;;;39.28;12.31
70141;BME280;57508;43.086;0.136;2022-10-23T15:24:43;95258.72;;;38.40;11.43
70141;BME280;57508;43.086;0.136;2022-10-23T15:27:08;95262.81;;;38.23;12.58
70141;BME280;57508;43.086;0.136;2022-10-23T15:29:34;95262.97;;;37.78;11.90
70141;BME280;57508;43.086;0.136;2022-10-23T15:32:00;95266.19;;;37.77;12.39
70141;BME280;57508;43.086;0.136;2022-10-23T15:34:27;95272.03;;;37.84;12.98
70141;BME280;57508;43.086;0.136;2022-10-23T15:36:54;95273.66;;;37.25;13.26
70141;BME280;57508;43.086;0.136;2022-10-23T15:39:26;95284.19;;;36.96;13.06
70141;BME280;57508;43.086;0.136;2022-10-23T15:41:54;95287.59;;;36.52;13.07
70141;BME280;57508;43.086;0.136;2022-10-23T15:44:22;95286.84;;;36.51;13.33
70141;BME280;57508;43.086;0.136;2022-10-23T15:46:48;95280.22;;;35.41;13.38
70141;BME280;57508;43.086;0.136;2022-10-23T15:49:14;95273.16;;;35.93;14.15
70141;BME280;57508;43.086;0.136;2022-10-23T15:51:41;95274.44;;;35.82;15.42
70141;BME280;57508;43.086;0.136;2022-10-23T15:54:09;95281.38;;;35.59;14.55
70141;BME280;57508;43.086;0.136;2022-10-23T15:56:35;95277.81;;;35.15;13.72
70141;BME280;57508;43.086;0.136;2022-10-23T15:59:01;95274.06;;;34.75;14.81
70141;BME280;57508;43.086;0.136;2022-10-23T16:01:27;95271.94;;;34.79;15.99
70141;BME280;57508;43.086;0.136;2022-10-23T16:03:52;95277.38;;;34.23;18.36
70141;BME280;57508;43.086;0.136;2022-10-23T16:06:19;95271.66;;;33.99;19.18
70141;BME280;57508;43.086;0.136;2022-10-23T16:08:45;95262.31;;;33.68;19.24
70141;BME280;57508;43.086;0.136;2022-10-23T16:11:20;95277.41;;;33.50;19.62
70141;BME280;57508;43.086;0.136;2022-10-23T16:13:46;95293.19;;;33.37;20.18
70141;BME280;57508;43.086;0.136;2022-10-23T16:16:12;95286.34;;;33.10;20.30
70141;BME280;57508;43.086;0.136;2022-10-23T16:18:38;95288.47;;;33.05;19.60
70141;BME280;57508;43.086;0.136;2022-10-23T16:21:04;95286.81;;;33.08;20.18
70141;BME280;57508;43.086;0.136;2022-10-23T16:23:29;95284.19;;;33.04;20.13
70141;BME280;57508;43.086;0.136;2022-10-23T16:26:01;95294.63;;;32.97;21.15
70141;BME280;57508;43.086;0.136;2022-10-23T16:28:26;95289.94;;;32.84;20.90
70141;BME280;57508;43.086;0.136;2022-10-23T16:30:51;95305.22;;;32.72;21.23
70141;BME280;57508;43.086;0.136;2022-10-23T16:33:17;95297.75;;;32.50;21.47
70141;BME280;57508;43.086;0.136;2022-10-23T16:35:42;95321.75;;;32.20;22.19
70141;BME280;57508;43.086;0.136;2022-10-23T16:38:08;95324.38;;;31.85;22.80
70141;BME280;57508;43.086;0.136;2022-10-23T16:40:33;95323.19;;;31.99;21.91
70141;BME280;57508;43.086;0.136;2022-10-23T16:42:58;95329.06;;;31.71;22.61
70141;BME280;57508;43.086;0.136;2022-10-23T16:45:24;95337.25;;;31.58;23.43
70141;BME280;57508;43.086;0.136;2022-10-23T16:47:49;95341.13;;;31.01;24.30
70141;BME280;57508;43.086;0.136;2022-10-23T16:50:15;95336.59;;;30.65;22.08
70141;BME280;57508;43.086;0.136;2022-10-23T16:52:41;95345.91;;;30.51;22.47
70141;BME280;57508;43.086;0.136;2022-10-23T16:55:07;95353.44;;;30.93;22.21
70141;BME280;57508;43.086;0.136;2022-10-23T16:57:35;95338.47;;;30.85;22.56
70141;BME280;57508;43.086;0.136;2022-10-23T17:00:01;95321.94;;;29.18;24.44
70141;BME280;57508;43.086;0.136;2022-10-23T17:02:27;95319.44;;;30.35;23.34
70141;BME280;57508;43.086;0.136;2022-10-23T17:04:52;95322.22;;;30.14;23.21
70141;BME280;57508;43.086;0.136;2022-10-23T17:07:18;95328.13;;;30.46;25.20
70141;BME280;57508;43.086;0.136;2022-10-23T17:09:44;95323.66;;;30.52;23.91
70141;BME280;57508;43.086;0.136;2022-10-23T17:12:11;95319.63;;;28.96;27.07
70141;BME280;57508;43.086;0.136;2022-10-23T17:14:37;95328.13;;;29.59;26.35
70141;BME280;57508;43.086;0.136;2022-10-23T17:17:03;95333.00;;;29.85;25.21
70141;BME280;57508;43.086;0.136;2022-10-23T17:19:30;95356.03;;;29.63;25.25
70141;BME280;57508;43.086;0.136;2022-10-23T17:21:56;95360.22;;;29.48;25.57
70141;BME280;57508;43.086;0.136;2022-10-23T17:24:22;95370.50;;;28.24;27.90
70141;BME280;57508;43.086;0.136;2022-10-23T17:26:48;95390.91;;;29.08;25.92
70141;BME280;57508;43.086;0.136;2022-10-23T17:29:14;95389.03;;;29.04;26.27
70141;BME280;57508;43.086;0.136;2022-10-23T17:31:42;95377.59;;;28.93;26.38
70141;BME280;57508;43.086;0.136;2022-10-23T17:34:12;95372.06;;;27.97;27.20
70141;BME280;57508;43.086;0.136;2022-10-23T17:36:41;95364.25;;;27.99;27.23
70141;BME280;57508;43.086;0.136;2022-10-23T17:39:09;95363.63;;;28.67;26.48
70141;BME280;57508;43.086;0.136;2022-10-23T17:41:35;95366.19;;;28.74;26.64
70141;BME280;57508;43.086;0.136;2022-10-23T17:44:01;95375.50;;;28.77;25.72
70141;BME280;57508;43.086;0.136;2022-10-23T17:46:27;95372.38;;;28.78;25.94
70141;BME280;57508;43.086;0.136;2022-10-23T17:48:56;95377.38;;;28.80;25.85
70141;BME280;57508;43.086;0.136;2022-10-23T17:51:24;95389.63;;;28.68;26.65
70141;BME280;57508;43.086;0.136;2022-10-23T17:53:51;95387.25;;;27.60;27.91
70141;BME280;57508;43.086;0.136;2022-10-23T17:56:19;95379.13;;;27.91;27.96
70141;BME280;57508;43.086;0.136;2022-10-23T17:58:47;95380.75;;;28.12;28.05
70141;BME280;57508;43.086;0.136;2022-10-23T18:01:15;95391.19;;;28.14;28.18
70141;BME280;57508;43.086;0.136;2022-10-23T18:03:41;95412.22;;;26.63;30.73
70141;BME280;57508;43.086;0.136;2022-10-23T18:06:15;95404.66;;;27.66;28.77
70141;BME280;57508;43.086;0.136;2022-10-23T18:08:42;95414.59;;;26.54;31.00
70141;BME280;57508;43.086;0.136;2022-10-23T18:11:14;95407.69;;;25.81;32.44
70141;BME280;57508;43.086;0.136;2022-10-23T18:13:40;95403.50;;;25.62;31.15
70141;BME280;57508;43.086;0.136;2022-10-23T18:16:06;95388.56;;;27.13;29.06
70141;BME280;57508;43.086;0.136;2022-10-23T18:18:33;95397.78;;;27.54;28.74
70141;BME280;57508;43.086;0.136;2022-10-23T18:21:02;95403.78;;;27.38;29.32
70141;BME280;57508;43.086;0.136;2022-10-23T18:23:28;95413.53;;;27.32;29.60
70141;BME280;57508;43.086;0.136;2022-10-23T18:25:54;95425.28;;;27.56;29.32
70141;BME280;57508;43.086;0.136;2022-10-23T18:28:20;95429.28;;;26.60;31.29
70141;BME280;57508;43.086;0.136;2022-10-23T18:30:46;95420.22;;;27.23;29.32
70141;BME280;57508;43.086;0.136;2022-10-23T18:33:13;95406.19;;;27.29;30.37
70141;BME280;57508;43.086;0.136;2022-10-23T18:35:39;95420.97;;;26.29;31.79
70141;BME280;57508;43.086;0.136;2022-10-23T18:38:05;95429.94;;;26.71;30.91
70141;BME280;57508;43.086;0.136;2022-10-23T18:40:32;95414.25;;;26.51;31.08
70141;BME280;57508;43.086;0.136;2022-10-23T18:42:58;95433.97;;;26.52;31.02
70141;BME280;57508;43.086;0.136;2022-10-23T18:45:23;95443.28;;;26.97;30.11
70141;BME280;57508;43.086;0.136;2022-10-23T18:47:49;95452.66;;;26.88;30.03
70141;BME280;57508;43.086;0.136;2022-10-23T18:50:15;95437.03;;;26.58;30.22
70141;BME280;57508;43.086;0.136;2022-10-23T18:52:41;95435.97;;;26.94;30.16
70141;BME280;57508;43.086;0.136;2022-10-23T18:55:07;95459.03;;;26.67;30.58
70141;BME280;57508;43.086;0.136;2022-10-23T18:57:34;95454.78;;;26.66;30.85
70141;BME280;57508;43.086;0.136;2022-10-23T19:00:00;95450.22;;;26.56;30.71
70141;BME280;57508;43.086;0.136;2022-10-23T19:02:27;95460.44;;;26.83;30.99
70141;BME280;57508;43.086;0.136;2022-10-23T19:04:53;95460.81;;;26.88;30.43
70141;BME280;57508;43.086;0.136;2022-10-23T19:07:18;95448.81;;;26.33;30.12
70141;BME280;57508;43.086;0.136;2022-10-23T19:09:43;95451.75;;;26.57;30.60
70141;BME280;57508;43.086;0.136;2022-10-23T19:12:09;95449.91;;;26.43;30.62
70141;BME280;57508;43.086;0.136;2022-10-23T19:14:35;95464.94;;;26.51;30.49
70141;BME280;57508;43.086;0.136;2022-10-23T19:17:07;95474.69;;;25.44;32.84
70141;BME280;57508;43.086;0.136;2022-10-23T19:19:46;95479.25;;;25.55;32.83
70141;BME280;57508;43.086;0.136;2022-10-23T19:22:14;95483.16;;;25.61;31.74
70141;BME280;57508;43.086;0.136;2022-10-23T19:24:52;95488.00;;;26.06;31.21
70141;BME280;57508;43.086;0.136;2022-10-23T19:27:20;95483.00;;;25.97;30.83
70141;BME280;57508;43.086;0.136;2022-10-23T19:29:47;95475.78;;;26.51;30.26
70141;BME280;57508;43.086;0.136;2022-10-23T19:32:14;95481.19;;;26.51;30.17
70141;BME280;57508;43.086;0.136;2022-10-23T19:34:39;95493.53;;;25.81;31.91
70141;BME280;57508;43.086;0.136;2022-10-23T19:37:05;95482.25;;;25.93;31.04
70141;BME280;57508;43.086;0.136;2022-10-23T19:39:31;95480.03;;;25.73;32.14
70141;BME280;57508;43.086;0.136;2022-10-23T19:41:56;95472.22;;;25.94;29.95
70141;BME280;57508;43.086;0.136;2022-10-23T19:44:23;95459.97;;;26.46;28.49
70141;BME280;57508;43.086;0.136;2022-10-23T19:46:48;95478.94;;;26.95;28.20
70141;BME280;57508;43.086;0.136;2022-10-23T19:49:14;95493.75;;;26.83;28.64
70141;BME280;57508;43.086;0.136;2022-10-23T19:51:43;95482.88;;;26.34;28.90
70141;BME280;57508;43.086;0.136;2022-10-23T19:54:09;95487.13;;;26.88;29.30
70141;BME280;57508;43.086;0.136;2022-10-23T19:56:35;95483.59;;;26.98;29.06
70141;BME280;57508;43.086;0.136;2022-10-23T19:59:01;95489.00;;;26.95;29.64
70141;BME280;57508;43.086;0.136;2022-10-23T20:01:27;95508.81;;;26.88;29.21
70141;BME280;57508;43.086;0.136;2022-10-23T20:03:52;95504.31;;;26.70;29.25
70141;BME280;57508;43.086;0.136;2022-10-23T20:06:25;95501.53;;;26.77;28.93
70141;BME280;57508;43.086;0.136;2022-10-23T20:08:51;95510.75;;;26.31;31.08
70141;BME280;57508;43.086;0.136;2022-10-23T20:11:24;95506.38;;;26.48;28.31
70141;BME280;57508;43.086;0.136;2022-10-23T20:13:50;95491.53;;;25.96;29.94
70141;BME280;57508;43.086;0.136;2022-10-23T20:16:25;95503.19;;;25.82;30.08
70141;BME280;57508;43.086;0.136;2022-10-23T20:18:51;95504.06;;;25.28;30.92
70141;BME280;57508;43.086;0.136;2022-10-23T20:21:17;95500.69;;;26.20;29.88
70141;BME280;57508;43.086;0.136;2022-10-23T20:23:43;95512.81;;;26.72;28.77
70141;BME280;57508;43.086;0.136;2022-10-23T20:26:12;95498.22;;;25.69;30.46
